Time;durP1;ratioP1;P1;durP2;ratioP2;P2;SDS_P1;SDS_P2;PMS_P1;PMS_P2;Temp;Humidity;BMP_temperature;BMP_pressure;BME280_temperature;BME280_humidity;BME280_pressure;Samples;Min_cycle;Max_cycle;Signal;HPM_P1;HPM_P2
2023/03/21 00:01:15;;;;;;;7.75;3.90;;;9.60;84.10;;;;;;5071939;28;20186;-69
2023/03/21 00:03:43;;;;;;;5.43;3.83;;;9.60;83.90;;;;;;5072410;28;20272;-68
2023/03/21 00:06:12;;;;;;;5.57;4.63;;;9.60;84.30;;;;;;5071482;28;20217;-69
2023/03/21 00:08:40;;;;;;;6.25;3.80;;;9.60;84.10;;;;;;5072253;28;20198;-69
2023/03/21 00:11:09;;;;;;;6.35;4.65;;;9.60;84.10;;;;;;5071295;28;20259;-69
2023/03/21 00:13:41;;;;;;;4.95;3.95;;;9.70;83.90;;;;;;5072019;28;20194;-68
2023/03/21 00:16:15;;;;;;;6.13;4.47;;;9.70;83.70;;;;;;5071502;28;20221;-69
2023/03/21 00:18:45;;;;;;;5.55;4.55;;;9.60;83.50;;;;;;5071815;28;20592;-69
2023/03/21 00:21:16;;;;;;;5.55;4.80;;;9.60;83.70;;;;;;5072302;28;20288;-68
2023/03/21 00:23:45;;;;;;;6.22;4.55;;;9.50;84.10;;;;;;5071529;28;20212;-69
2023/03/21 00:26:13;;;;;;;5.30;4.40;;;9.50;84.30;;;;;;5071589;28;20182;-68
2023/03/21 00:28:42;;;;;;;6.78;5.15;;;9.40;84.80;;;;;;5071722;28;20548;-68
2023/03/21 00:31:11;;;;;;;5.47;4.40;;;9.40;85.20;;;;;;5072061;28;20221;-68
2023/03/21 00:33:38;;;;;;;7.38;5.15;;;9.30;85.40;;;;;;5071746;28;20182;-68
2023/03/21 00:36:07;;;;;;;5.80;4.35;;;9.30;85.90;;;;;;5071312;28;20186;-68
2023/03/21 00:38:35;;;;;;;5.93;4.38;;;9.30;86.10;;;;;;5071337;28;20189;-68
2023/03/21 00:41:04;;;;;;;4.68;3.90;;;9.30;85.90;;;;;;5073749;28;20193;-68
2023/03/21 00:43:32;;;;;;;6.05;4.70;;;9.30;85.80;;;;;;5075060;28;20213;-68
2023/03/21 00:45:59;;;;;;;6.05;4.63;;;9.40;85.80;;;;;;5075272;28;20553;-69
2023/03/21 00:48:29;;;;;;;7.90;4.00;;;9.30;86.00;;;;;;5075083;28;20198;-68
2023/03/21 00:50:59;;;;;;;5.00;4.15;;;9.30;86.10;;;;;;5075234;28;20237;-68
2023/03/21 00:53:27;;;;;;;5.60;3.92;;;9.40;86.50;;;;;;5074849;28;20186;-68
2023/03/21 00:55:54;;;;;;;4.93;3.72;;;9.30;86.40;;;;;;5075098;28;20190;-68
2023/03/21 00:58:21;;;;;;;5.22;3.83;;;9.40;86.20;;;;;;5074680;28;20190;-68
2023/03/21 01:00:49;;;;;;;4.72;3.85;;;9.30;86.30;;;;;;5074940;28;20182;-73
2023/03/21 01:03:19;;;;;;;4.80;4.13;;;9.40;86.10;;;;;;5075130;28;20584;-69
2023/03/21 01:06:05;;;;;;;4.50;4.03;;;9.40;86.40;;;;;;5074682;28;20186;-68
2023/03/21 01:08:34;;;;;;;7.75;4.40;;;9.30;86.30;;;;;;5074773;28;20190;-68
2023/03/21 01:11:03;;;;;;;4.70;4.10;;;9.30;86.50;;;;;;5075168;28;20193;-68
2023/03/21 01:13:34;;;;;;;5.65;4.10;;;9.30;86.40;;;;;;5074539;28;20190;-68
2023/03/21 01:16:04;;;;;;;4.80;4.10;;;9.30;86.30;;;;;;5072662;28;20188;-68
2023/03/21 01:18:32;;;;;;;5.53;4.60;;;9.30;86.50;;;;;;5074638;28;20186;-68
2023/03/21 01:21:02;;;;;;;6.90;4.85;;;9.40;86.60;;;;;;5074739;28;20194;-68
2023/03/21 01:23:30;;;;;;;5.03;3.85;;;9.30;86.70;;;;;;5074436;28;20640;-68
2023/03/21 01:25:57;;;;;;;5.35;4.50;;;9.30;87.00;;;;;;5074211;28;20671;-68
2023/03/21 01:28:28;;;;;;;6.35;4.32;;;9.30;87.20;;;;;;5074909;28;20219;-68
2023/03/21 01:31:02;;;;;;;6.03;4.55;;;9.30;87.30;;;;;;5074257;28;20193;-68
2023/03/21 01:33:31;;;;;;;5.22;4.05;;;9.30;87.30;;;;;;5074629;28;20197;-70
2023/03/21 01:36:01;;;;;;;5.22;3.92;;;9.30;87.20;;;;;;5073774;28;20182;-68
2023/03/21 01:38:28;;;;;;;7.47;4.60;;;9.30;87.80;;;;;;5074319;28;20557;-69
2023/03/21 01:40:56;;;;;;;5.65;4.05;;;9.30;87.70;;;;;;5074046;28;20644;-68
2023/03/21 01:43:29;;;;;;;5.78;4.20;;;9.30;87.50;;;;;;5074521;28;20709;-69
2023/03/21 01:46:34;;;;;;;6.15;4.80;;;9.30;88.10;;;;;;5074213;28;20182;-71
2023/03/21 01:49:20;;;;;;;5.70;3.95;;;9.30;88.50;;;;;;5074165;28;20269;-68
2023/03/21 01:51:52;;;;;;;5.03;3.47;;;9.30;88.40;;;;;;5072379;28;20684;-68
2023/03/21 01:54:25;;;;;;;5.40;4.10;;;9.30;88.30;;;;;;5074539;28;20197;-69
2023/03/21 01:56:56;;;;;;;6.35;4.82;;;9.30;88.40;;;;;;5073882;28;20640;-69
2023/03/21 01:59:31;;;;;;;5.72;4.15;;;9.30;88.40;;;;;;5074444;28;20195;-68
2023/03/21 02:02:05;;;;;;;4.78;3.92;;;9.20;88.30;;;;;;5073748;28;20189;-69
2023/03/21 02:04:35;;;;;;;6.70;3.70;;;9.30;88.60;;;;;;5074319;28;20196;-68
2023/03/21 02:07:07;;;;;;;6.40;4.07;;;9.30;88.60;;;;;;5073264;28;20232;-69
2023/03/21 02:09:39;;;;;;;5.00;4.05;;;9.30;88.40;;;;;;5074330;28;20174;-69
2023/03/21 02:12:07;;;;;;;4.68;4.10;;;9.30;88.60;;;;;;5072970;28;20672;-68
2023/03/21 02:14:37;;;;;;;4.70;3.50;;;9.30;88.60;;;;;;5073917;28;20201;-69
2023/03/21 02:17:15;;;;;;;6.10;4.10;;;9.30;88.40;;;;;;5073451;28;20182;-68
2023/03/21 02:20:27;;;;;;;5.32;3.65;;;9.40;88.60;;;;;;5073590;28;20194;-69
2023/03/21 02:23:36;;;;;;;5.68;3.60;;;9.30;88.60;;;;;;5053603;28;20190;-69
2023/03/21 02:26:36;;;;;;;4.68;4.00;;;9.30;88.70;;;;;;5063296;28;20185;-69
2023/03/21 02:29:14;;;;;;;5.15;3.80;;;9.30;88.60;;;;;;5073875;28;20178;-68
2023/03/21 02:31:47;;;;;;;4.40;3.17;;;9.20;88.70;;;;;;5072736;28;21565;-68
2023/03/21 02:34:46;;;;;;;10.40;4.30;;;9.20;89.10;;;;;;5073207;28;20641;-69
2023/03/21 02:37:28;;;;;;;6.85;4.50;;;9.20;89.20;;;;;;5072954;28;20194;-69
2023/03/21 02:40:09;;;;;;;4.60;3.30;;;9.30;89.40;;;;;;5073404;28;20194;-69
2023/03/21 02:42:49;;;;;;;6.32;4.32;;;9.30;89.50;;;;;;5064604;28;20190;-68
2023/03/21 02:45:20;;;;;;;5.55;3.85;;;9.20;89.20;;;;;;5072876;28;20198;-69
2023/03/21 02:47:51;;;;;;;5.63;4.10;;;9.30;89.00;;;;;;5073392;28;20557;-68
2023/03/21 02:50:28;;;;;;;5.32;3.70;;;9.20;89.20;;;;;;5072941;28;20280;-68
2023/03/21 02:53:03;;;;;;;5.32;3.55;;;9.20;89.40;;;;;;5073227;28;20297;-69
2023/03/21 02:55:34;;;;;;;5.90;4.22;;;9.20;89.30;;;;;;5072420;28;20193;-69
2023/03/21 02:58:05;;;;;;;4.82;3.53;;;9.20;89.20;;;;;;5072927;28;20308;-69
2023/03/21 03:00:35;;;;;;;4.18;3.35;;;9.20;89.30;;;;;;5072432;28;20205;-68
2023/03/21 03:03:03;;;;;;;5.30;4.80;;;9.20;90.00;;;;;;5072758;28;20228;-69
2023/03/21 03:05:43;;;;;;;4.20;3.13;;;9.20;89.00;;;;;;5072496;28;20186;-68
2023/03/21 03:08:25;;;;;;;4.63;3.92;;;9.20;89.10;;;;;;5072671;28;20189;-68
2023/03/21 03:11:15;;;;;;;5.22;3.90;;;9.10;88.60;;;;;;5072605;28;20208;-79
2023/03/21 03:14:01;;;;;;;4.35;3.60;;;9.10;88.80;;;;;;5072819;28;20222;-69
2023/03/21 03:16:39;;;;;;;4.43;3.20;;;9.10;88.50;;;;;;5072431;28;20185;-69
2023/03/21 03:19:11;;;;;;;5.93;4.18;;;9.00;89.20;;;;;;5072862;28;20286;-69
2023/03/21 03:21:47;;;;;;;5.57;4.32;;;9.00;89.40;;;;;;5072351;28;20221;-69
2023/03/21 03:24:21;;;;;;;4.72;3.78;;;9.00;89.70;;;;;;5072767;28;20192;-69
2023/03/21 03:26:53;;;;;;;7.63;4.95;;;9.00;90.10;;;;;;5072324;28;20196;-69
2023/03/21 03:29:22;;;;;;;6.70;4.03;;;9.00;90.00;;;;;;5072827;28;20197;-69
2023/03/21 03:31:58;;;;;;;5.05;3.78;;;8.90;90.20;;;;;;5072098;28;20182;-69
2023/03/21 03:34:31;;;;;;;5.13;3.72;;;8.90;90.20;;;;;;5072658;28;20184;-69
2023/03/21 03:37:09;;;;;;;5.65;4.13;;;8.90;90.30;;;;;;5072001;28;20223;-69
2023/03/21 03:39:46;;;;;;;4.10;3.40;;;9.00;90.50;;;;;;5072498;28;20194;-68
2023/03/21 03:42:17;;;;;;;5.45;3.53;;;8.90;90.50;;;;;;5071934;28;20211;-69
2023/03/21 03:44:50;;;;;;;5.75;4.40;;;8.90;90.60;;;;;;5052536;28;20191;-69
2023/03/21 03:47:22;;;;;;;4.72;3.55;;;8.90;90.70;;;;;;5061217;28;20193;-69
2023/03/21 03:49:55;;;;;;;5.13;3.90;;;8.90;90.70;;;;;;5072547;28;20198;-69
2023/03/21 03:52:27;;;;;;;6.00;4.60;;;8.90;90.70;;;;;;5071951;28;20213;-68
2023/03/21 03:54:56;;;;;;;4.03;3.05;;;8.90;90.80;;;;;;5072407;28;20189;-69
2023/03/21 03:57:26;;;;;;;3.70;3.17;;;8.90;90.90;;;;;;5071854;28;20239;-69
2023/03/21 03:59:53;;;;;;;5.50;3.88;;;9.00;91.00;;;;;;5072383;28;20254;-69
2023/03/21 04:02:32;;;;;;;4.57;3.40;;;9.00;91.10;;;;;;5072045;28;20190;-69
2023/03/21 04:05:03;;;;;;;4.95;3.60;;;9.00;91.10;;;;;;5072270;28;20679;-69
2023/03/21 04:07:40;;;;;;;4.78;3.42;;;9.00;91.00;;;;;;5071583;28;20221;-69
2023/03/21 04:10:10;;;;;;;5.05;3.40;;;9.00;91.10;;;;;;5072408;28;20201;-69
2023/03/21 04:12:39;;;;;;;4.22;3.50;;;9.00;91.00;;;;;;5071809;28;20240;-68
2023/03/21 04:15:10;;;;;;;6.22;2.70;;;9.00;90.90;;;;;;5073017;28;20247;-69
2023/03/21 04:17:39;;;;;;;4.30;3.03;;;9.00;90.90;;;;;;5075608;28;20186;-68
2023/03/21 04:20:07;;;;;;;5.72;3.40;;;9.00;91.10;;;;;;5076320;28;20254;-69
2023/03/21 04:22:37;;;;;;;6.38;3.00;;;9.00;91.10;;;;;;5075705;28;20194;-68
2023/03/21 04:25:06;;;;;;;4.38;3.42;;;8.90;91.20;;;;;;5075896;28;20196;-69
2023/03/21 04:27:39;;;;;;;5.57;3.40;;;8.90;91.40;;;;;;5075472;28;20218;-69
2023/03/21 04:30:10;;;;;;;4.40;3.13;;;8.80;91.60;;;;;;5075795;28;20197;-69
2023/03/21 04:32:55;;;;;;;4.63;2.83;;;8.80;91.60;;;;;;5075473;28;20771;-68
2023/03/21 04:35:24;;;;;;;5.03;3.92;;;8.80;91.60;;;;;;5076073;28;20190;-69
2023/03/21 04:37:52;;;;;;;6.45;3.90;;;8.90;91.70;;;;;;5075366;28;20186;-69
2023/03/21 04:40:20;;;;;;;8.57;5.10;;;8.90;91.70;;;;;;5075922;28;20197;-68
2023/03/21 04:42:51;;;;;;;7.25;3.75;;;8.90;91.70;;;;;;5075280;28;20186;-69
2023/03/21 04:45:22;;;;;;;6.22;5.30;;;8.90;91.70;;;;;;5075639;28;20190;-69
2023/03/21 04:47:51;;;;;;;6.90;5.00;;;8.90;91.60;;;;;;5075296;28;20204;-69
2023/03/21 04:50:19;;;;;;;5.65;4.40;;;8.90;91.50;;;;;;5074972;28;20200;-69
2023/03/21 04:52:47;;;;;;;7.90;4.63;;;8.90;91.40;;;;;;5075430;28;20221;-69
2023/03/21 04:55:14;;;;;;;4.85;4.35;;;8.90;91.60;;;;;;5075521;28;20189;-69
2023/03/21 04:57:51;;;;;;;4.15;3.58;;;8.80;91.60;;;;;;5075116;28;20181;-69
2023/03/21 05:00:20;;;;;;;8.82;4.43;;;8.90;91.50;;;;;;5074851;28;20709;-69
2023/03/21 05:02:47;;;;;;;5.45;4.53;;;8.80;91.20;;;;;;5055363;28;20283;-69
2023/03/21 05:05:17;;;;;;;5.18;4.53;;;8.80;91.20;;;;;;5055094;28;20190;-69
2023/03/21 05:07:46;;;;;;;5.97;5.38;;;8.80;91.20;;;;;;5074658;28;20213;-69
2023/03/21 05:10:19;;;;;;;5.82;4.97;;;8.80;91.10;;;;;;5075366;28;20629;-69
2023/03/21 05:12:46;;;;;;;6.28;4.53;;;8.70;91.40;;;;;;5055661;28;20211;-69
2023/03/21 05:15:15;;;;;;;6.45;4.78;;;8.70;91.40;;;;;;5055017;28;20194;-69
2023/03/21 05:17:43;;;;;;;9.63;5.63;;;8.70;91.30;;;;;;5074209;28;20182;-69
2023/03/21 05:20:14;;;;;;;10.90;6.22;;;8.70;91.30;;;;;;5074511;28;20201;-69
2023/03/21 05:22:44;;;;;;;8.10;6.93;;;8.70;91.50;;;;;;5074215;28;20190;-68
2023/03/21 05:25:13;;;;;;;7.78;6.72;;;8.70;91.40;;;;;;5074503;28;20189;-69
2023/03/21 05:27:44;;;;;;;11.10;10.00;;;8.70;91.60;;;;;;5073406;28;20202;-69
2023/03/21 05:30:13;;;;;;;9.43;8.45;;;8.60;91.60;;;;;;5074316;28;20229;-69
2023/03/21 05:32:48;;;;;;;8.93;7.47;;;8.60;91.80;;;;;;5074436;28;20228;-68
2023/03/21 05:35:17;;;;;;;9.85;8.30;;;8.70;91.70;;;;;;5074201;28;20408;-69
2023/03/21 05:37:44;;;;;;;9.85;7.25;;;8.60;91.80;;;;;;5073886;28;20692;-69
2023/03/21 05:40:19;;;;;;;7.88;5.72;;;8.60;92.00;;;;;;5074258;28;20717;-69
2023/03/21 05:42:49;;;;;;;4.28;3.00;;;8.60;92.30;;;;;;5074686;28;20235;-68
2023/03/21 05:45:18;;;;;;;4.47;3.55;;;8.60;92.40;;;;;;5072985;28;20278;-70
2023/03/21 05:47:47;;;;;;;7.35;4.88;;;8.60;92.40;;;;;;5064323;28;20186;-69
2023/03/21 05:50:15;;;;;;;6.10;4.75;;;8.70;92.30;;;;;;5073771;28;20198;-70
2023/03/21 05:52:44;;;;;;;5.60;3.72;;;8.70;92.20;;;;;;5069729;28;20284;-68
2023/03/21 05:55:16;;;;;;;5.40;3.50;;;8.70;92.30;;;;;;5072372;28;20204;-69
2023/03/21 05:57:46;;;;;;;6.47;4.18;;;8.70;92.10;;;;;;5068530;28;20659;-69
2023/03/21 06:00:15;;;;;;;5.65;4.72;;;8.80;92.20;;;;;;5072037;28;20194;-69
2023/03/21 06:02:45;;;;;;;5.00;4.50;;;8.80;92.10;;;;;;5071481;28;20212;-69
2023/03/21 06:05:19;;;;;;;4.03;3.05;;;8.80;92.20;;;;;;5068702;28;20730;-69
2023/03/21 06:07:47;;;;;;;5.72;3.40;;;8.80;92.30;;;;;;5071819;28;20224;-69
2023/03/21 06:10:16;;;;;;;5.07;3.80;;;8.90;92.20;;;;;;5071669;28;20198;-69
2023/03/21 06:12:43;;;;;;;6.35;4.70;;;8.90;92.20;;;;;;5071951;28;20201;-69
2023/03/21 06:15:14;;;;;;;5.00;4.00;;;8.90;92.40;;;;;;5072036;28;20652;-69
2023/03/21 06:17:41;;;;;;;5.75;4.10;;;9.00;92.50;;;;;;5071245;28;20226;-71
2023/03/21 06:20:12;;;;;;;8.65;4.72;;;9.00;92.40;;;;;;5067427;28;20278;-69
2023/03/21 06:22:44;;;;;;;5.60;3.95;;;9.10;92.20;;;;;;5071555;28;20229;-69
2023/03/21 06:25:11;;;;;;;6.55;4.07;;;9.20;92.00;;;;;;5071692;28;20213;-70
2023/03/21 06:27:40;;;;;;;5.63;4.68;;;9.30;91.70;;;;;;5065984;28;20225;-69
2023/03/21 06:30:09;;;;;;;7.72;4.72;;;9.30;91.50;;;;;;5071305;28;20251;-69
2023/03/21 06:32:36;;;;;;;8.55;4.97;;;9.30;91.30;;;;;;5069284;28;20277;-69
2023/03/21 06:35:03;;;;;;;7.68;4.85;;;9.40;91.10;;;;;;5070532;28;20277;-69
2023/03/21 06:37:30;;;;;;;9.23;4.20;;;9.40;91.00;;;;;;5070617;28;20239;-70
2023/03/21 06:39:59;;;;;;;6.20;3.78;;;9.50;90.90;;;;;;5070358;28;20599;-69
2023/03/21 06:42:28;;;;;;;4.45;3.13;;;9.50;90.70;;;;;;5070870;28;20198;-69
2023/03/21 06:44:55;;;;;;;3.85;2.83;;;9.50;90.90;;;;;;5067581;28;20193;-69
2023/03/21 06:47:24;;;;;;;6.90;2.70;;;9.60;90.90;;;;;;5070124;28;20550;-71
2023/03/21 06:49:53;;;;;;;4.45;2.67;;;9.70;90.80;;;;;;5070034;28;20235;-71
2023/03/21 06:52:20;;;;;;;4.05;2.50;;;9.70;90.60;;;;;;5069773;28;20243;-71
2023/03/21 06:54:47;;;;;;;3.88;2.75;;;9.80;90.50;;;;;;5070455;28;20221;-69
2023/03/21 06:57:18;;;;;;;4.72;3.30;;;9.80;90.30;;;;;;5070515;28;20201;-69
2023/03/21 06:59:46;;;;;;;3.70;2.75;;;9.90;90.10;;;;;;5070621;28;20205;-69
2023/03/21 07:02:13;;;;;;;4.82;2.85;;;10.00;88.60;;;;;;5070056;28;20216;-69
2023/03/21 07:04:42;;;;;;;4.82;3.40;;;10.00;87.10;;;;;;5070459;28;20543;-69
2023/03/21 07:07:09;;;;;;;7.70;3.15;;;10.10;86.80;;;;;;5069863;28;20691;-69
2023/03/21 07:09:37;;;;;;;5.10;3.25;;;10.10;86.80;;;;;;5070238;28;20641;-72
2023/03/21 07:12:04;;;;;;;5.28;2.90;;;10.20;86.40;;;;;;5070417;28;20182;-69
2023/03/21 07:14:33;;;;;;;6.75;3.40;;;10.20;86.30;;;;;;5069854;28;20298;-69
2023/03/21 07:17:02;;;;;;;4.78;3.05;;;10.20;85.90;;;;;;5069441;28;20194;-69
2023/03/21 07:19:29;;;;;;;4.40;3.10;;;10.20;86.10;;;;;;5070665;28;20197;-69
2023/03/21 07:21:56;;;;;;;7.25;3.30;;;10.30;86.00;;;;;;5072631;28;20360;-69
2023/03/21 07:24:23;;;;;;;3.92;2.88;;;10.30;86.00;;;;;;5073146;28;20281;-70
2023/03/21 07:26:50;;;;;;;4.68;3.20;;;10.40;86.10;;;;;;5072657;28;20280;-69
2023/03/21 07:29:20;;;;;;;4.13;3.38;;;10.50;85.60;;;;;;5073099;28;20189;-73
2023/03/21 07:31:48;;;;;;;5.13;2.85;;;10.50;85.30;;;;;;5073132;28;20198;-69
2023/03/21 07:34:16;;;;;;;3.67;2.80;;;10.60;85.20;;;;;;5073147;28;20244;-69
2023/03/21 07:36:47;;;;;;;6.38;3.83;;;10.70;84.80;;;;;;5073113;28;20212;-69
2023/03/21 07:39:16;;;;;;;9.52;3.80;;;10.80;84.20;;;;;;5062890;28;20285;-69
2023/03/21 07:41:43;;;;;;;4.72;3.65;;;10.90;83.80;;;;;;5066545;28;20201;-69
2023/03/21 07:44:10;;;;;;;5.22;4.28;;;11.00;83.60;;;;;;5062482;28;20539;-69
2023/03/21 07:46:38;;;;;;;5.80;3.72;;;11.10;83.50;;;;;;5061522;28;20608;-69
2023/03/21 07:49:07;;;;;;;6.47;3.63;;;11.20;82.20;;;;;;5070511;28;20229;-69
2023/03/21 07:51:35;;;;;;;7.13;4.10;;;11.30;80.30;;;;;;5067311;28;20639;-69
2023/03/21 07:54:02;;;;;;;4.60;3.13;;;11.40;79.80;;;;;;5064688;28;20668;-69
2023/03/21 07:56:29;;;;;;;4.50;3.78;;;11.50;78.80;;;;;;5075801;28;20292;-69
2023/03/21 07:58:56;;;;;;;4.60;2.90;;;11.60;77.30;;;;;;5075852;28;20276;-69
2023/03/21 08:01:23;;;;;;;5.95;2.97;;;11.70;75.80;;;;;;5074179;28;20293;-69
2023/03/21 08:03:56;;;;;;;5.07;3.17;;;11.70;75.80;;;;;;5074930;28;20201;-70
2023/03/21 08:06:27;;;;;;;4.15;2.63;;;11.90;75.50;;;;;;5074285;28;20236;-70
2023/03/21 08:08:54;;;;;;;5.15;3.20;;;11.90;74.50;;;;;;5075271;28;20232;-70
2023/03/21 08:11:22;;;;;;;3.72;2.90;;;11.90;74.20;;;;;;5075306;28;20284;-70
2023/03/21 08:13:50;;;;;;;5.72;3.40;;;11.90;74.50;;;;;;5075422;28;20278;-70
2023/03/21 08:16:17;;;;;;;4.65;3.50;;;11.90;74.80;;;;;;5075118;28;20193;-69
2023/03/21 08:18:43;;;;;;;3.65;3.15;;;11.90;75.20;;;;;;5075337;28;20282;-70
2023/03/21 08:21:10;;;;;;;10.52;3.70;;;11.90;75.40;;;;;;5075373;28;20205;-68
2023/03/21 08:23:39;;;;;;;4.43;2.53;;;12.00;75.70;;;;;;5075733;28;20241;-69
2023/03/21 08:26:06;;;;;;;4.72;3.00;;;12.10;76.00;;;;;;5072587;28;20204;-69
2023/03/21 08:28:33;;;;;;;3.78;2.80;;;12.20;76.20;;;;;;5074745;28;20243;-69
2023/03/21 08:31:00;;;;;;;4.25;3.05;;;12.30;75.20;;;;;;5074677;28;20240;-69
2023/03/21 08:33:27;;;;;;;3.53;2.58;;;12.40;74.60;;;;;;5075014;28;20193;-70
2023/03/21 08:35:54;;;;;;;3.63;2.83;;;12.50;74.50;;;;;;5074947;28;20284;-70
2023/03/21 08:38:21;;;;;;;4.30;2.72;;;12.60;73.40;;;;;;5074700;28;20229;-72
2023/03/21 08:40:50;;;;;;;3.88;3.35;;;12.60;72.50;;;;;;5072866;28;20559;-69
2023/03/21 08:43:17;;;;;;;4.88;3.33;;;12.70;71.80;;;;;;5074810;28;20202;-69
2023/03/21 08:45:44;;;;;;;3.90;2.90;;;12.60;71.60;;;;;;5075100;28;20279;-69
2023/03/21 08:48:11;;;;;;;5.22;4.10;;;12.70;71.80;;;;;;5072517;28;20229;-69
2023/03/21 08:50:38;;;;;;;5.05;3.58;;;12.70;71.50;;;;;;5072520;28;20203;-69
2023/03/21 08:53:05;;;;;;;4.45;3.65;;;12.70;71.60;;;;;;5074625;28;20280;-69
2023/03/21 08:55:33;;;;;;;4.55;3.40;;;12.80;71.80;;;;;;5074482;28;20249;-71
2023/03/21 08:58:02;;;;;;;8.38;4.15;;;12.80;71.50;;;;;;5073757;28;20193;-69
2023/03/21 09:00:29;;;;;;;6.93;4.20;;;12.90;71.50;;;;;;5074195;28;20289;-69
2023/03/21 09:02:57;;;;;;;4.10;3.50;;;12.90;71.40;;;;;;5070328;28;20284;-71
2023/03/21 09:05:25;;;;;;;4.55;3.20;;;13.00;71.60;;;;;;5074128;28;20205;-69
2023/03/21 09:07:52;;;;;;;4.60;3.08;;;13.10;71.40;;;;;;5073193;28;20587;-72
2023/03/21 09:10:21;;;;;;;4.63;3.60;;;13.20;70.50;;;;;;5073090;28;20281;-70
2023/03/21 09:12:48;;;;;;;4.10;3.22;;;13.30;69.90;;;;;;5074529;28;20238;-69
2023/03/21 09:15:19;;;;;;;4.82;4.03;;;13.30;69.60;;;;;;5072793;28;20718;-69
2023/03/21 09:17:51;;;;;;;7.13;5.05;;;13.40;69.80;;;;;;5072964;28;20197;-70
2023/03/21 09:20:20;;;;;;;4.43;3.45;;;13.50;68.90;;;;;;5073060;28;20263;-71
2023/03/21 09:22:47;;;;;;;5.75;4.50;;;13.50;68.60;;;;;;5071463;28;20198;-69
2023/03/21 09:25:15;;;;;;;5.72;3.50;;;13.60;68.40;;;;;;5074564;28;20284;-70
2023/03/21 09:27:44;;;;;;;5.07;3.42;;;13.70;67.70;;;;;;5074001;28;20198;-69
2023/03/21 09:30:12;;;;;;;7.35;3.85;;;13.80;67.40;;;;;;5073853;28;20205;-69
2023/03/21 09:32:40;;;;;;;5.78;3.15;;;13.90;67.40;;;;;;5074089;28;20205;-69
2023/03/21 09:35:10;;;;;;;7.05;4.28;;;14.00;66.50;;;;;;5073592;28;20763;-72
2023/03/21 09:37:41;;;;;;;5.03;3.90;;;14.10;67.10;;;;;;5073625;28;20197;-75
2023/03/21 09:40:18;;;;;;;4.63;3.37;;;14.30;66.80;;;;;;5073563;28;20198;-69
2023/03/21 09:42:54;;;;;;;4.50;3.80;;;14.50;66.10;;;;;;5073747;28;20451;-70
2023/03/21 09:45:26;;;;;;;4.80;3.20;;;14.70;64.20;;;;;;5073191;28;20540;-72
2023/03/21 09:47:55;;;;;;;6.73;3.30;;;14.80;62.50;;;;;;5073467;28;20522;-69
2023/03/21 09:50:27;;;;;;;4.93;3.53;;;14.80;62.20;;;;;;5072288;28;20898;-69
2023/03/21 09:52:57;;;;;;;4.80;2.93;;;14.80;60.00;;;;;;5073392;28;20480;-69
2023/03/21 09:55:29;;;;;;;7.40;4.00;;;14.80;59.40;;;;;;5066970;28;20506;-69
2023/03/21 09:58:06;;;;;;;4.83;3.73;;;14.90;60.70;;;;;;5070297;28;20519;-70
2023/03/21 10:00:38;;;;;;;5.23;4.03;;;14.90;61.10;;;;;;5071191;28;20447;-70
2023/03/21 10:03:16;;;;;;;6.00;3.83;;;15.00;60.60;;;;;;5072441;28;20958;-69
2023/03/21 10:05:45;;;;;;;4.53;3.27;;;15.00;60.50;;;;;;5073445;28;20531;-69
2023/03/21 10:08:18;;;;;;;3.87;2.83;;;15.10;59.50;;;;;;5051920;28;20499;-69
2023/03/21 10:10:49;;;;;;;4.57;3.40;;;15.20;58.80;;;;;;5052088;28;20524;-69
2023/03/21 10:13:19;;;;;;;4.97;3.77;;;15.20;59.10;;;;;;5051921;28;20923;-74
2023/03/21 10:15:46;;;;;;;5.37;3.10;;;15.30;59.10;;;;;;5052882;28;20520;-70
2023/03/21 10:18:20;;;;;;;4.93;4.43;;;15.40;59.20;;;;;;5052638;28;20471;-69
2023/03/21 10:20:47;;;;;;;8.03;3.37;;;15.40;59.50;;;;;;5053035;28;20440;-74
2023/03/21 10:23:16;;;;;;;4.53;3.40;;;15.50;58.80;;;;;;5052490;28;20528;-69
2023/03/21 10:25:46;;;;;;;4.20;3.33;;;15.60;58.20;;;;;;5052813;28;20836;-69
2023/03/21 10:28:17;;;;;;;3.90;3.30;;;15.70;57.40;;;;;;5051002;28;20443;-69
2023/03/21 10:30:48;;;;;;;5.00;3.27;;;15.70;56.20;;;;;;5051213;28;20851;-70
2023/03/21 10:33:20;;;;;;;5.07;3.50;;;15.70;55.70;;;;;;5052668;28;20519;-69
2023/03/21 10:35:51;;;;;;;4.10;3.33;;;15.70;55.80;;;;;;5052182;28;20883;-69
2023/03/21 10:38:21;;;;;;;4.30;3.30;;;15.70;55.30;;;;;;5050545;28;20465;-69
2023/03/21 10:40:48;;;;;;;4.73;3.90;;;15.70;56.10;;;;;;5051641;28;20519;-69
2023/03/21 10:43:29;;;;;;;5.47;4.80;;;15.70;55.80;;;;;;5052950;28;20782;-70
2023/03/21 10:45:57;;;;;;;3.70;3.17;;;15.80;55.50;;;;;;5052313;28;20445;-70
2023/03/21 10:48:25;;;;;;;11.37;4.10;;;15.90;56.00;;;;;;5049357;28;21007;-70
2023/03/21 10:50:55;;;;;;;3.40;2.93;;;16.00;55.30;;;;;;5045279;28;20533;-70
2023/03/21 10:53:27;;;;;;;4.73;3.80;;;16.10;54.70;;;;;;5032614;28;20532;-70
2023/03/21 10:55:59;;;;;;;4.80;3.90;;;16.60;55.10;;;;;;5032929;28;20569;-70
2023/03/21 10:58:27;;;;;;;5.50;4.03;;;17.20;54.50;;;;;;5035451;28;20449;-70
2023/03/21 11:00:57;;;;;;;6.00;4.17;;;17.80;52.50;;;;;;5033516;28;20548;-70
2023/03/21 11:03:30;;;;;;;5.07;3.80;;;18.30;49.90;;;;;;5033425;28;20913;-70
2023/03/21 11:06:02;;;;;;;5.73;3.60;;;18.70;48.90;;;;;;5035034;28;20429;-70
2023/03/21 11:08:29;;;;;;;5.00;3.43;;;19.00;47.20;;;;;;5053490;28;20467;-70
2023/03/21 11:11:01;;;;;;;4.33;3.10;;;19.20;46.80;;;;;;5053347;28;20527;-70
2023/03/21 11:13:35;;;;;;;4.03;2.93;;;19.40;45.90;;;;;;5053306;28;20433;-70
2023/03/21 11:16:07;;;;;;;6.70;3.50;;;19.50;45.30;;;;;;5053378;28;20488;-70
2023/03/21 11:18:41;;;;;;;5.07;3.60;;;19.50;44.70;;;;;;5053202;28;20444;-70
2023/03/21 11:21:10;;;;;;;3.93;3.53;;;19.40;44.60;;;;;;5053058;28;20448;-70
2023/03/21 11:23:42;;;;;;;5.13;3.40;;;19.50;45.00;;;;;;5053216;28;20527;-70
2023/03/21 11:26:12;;;;;;;5.10;3.30;;;19.80;44.40;;;;;;5053090;28;20785;-70
2023/03/21 11:28:41;;;;;;;7.97;5.67;;;20.20;43.50;;;;;;5053202;28;20479;-70
2023/03/21 11:31:09;;;;;;;5.13;4.07;;;20.50;42.20;;;;;;5053006;28;20447;-70
2023/03/21 11:33:39;;;;;;;5.10;3.90;;;20.90;42.10;;;;;;5053233;28;20455;-70
2023/03/21 11:36:26;;;;;;;4.40;3.30;;;21.20;41.60;;;;;;5052949;28;20487;-70
2023/03/21 11:38:56;;;;;;;4.90;2.77;;;21.30;41.10;;;;;;5052712;28;20475;-70
2023/03/21 11:41:24;;;;;;;5.07;2.87;;;21.40;40.10;;;;;;5053181;28;20995;-69
2023/03/21 11:43:53;;;;;;;5.90;3.20;;;21.60;39.20;;;;;;5053032;28;20527;-71
2023/03/21 11:46:24;;;;;;;4.23;3.33;;;21.70;39.30;;;;;;5052674;28;20537;-71
2023/03/21 11:48:53;;;;;;;3.33;2.30;;;21.80;38.70;;;;;;5053166;28;20429;-70
2023/03/21 11:51:29;;;;;;;3.57;2.53;;;22.20;39.60;;;;;;5052824;28;20552;-71
2023/03/21 11:54:05;;;;;;;5.03;2.80;;;23.20;37.70;;;;;;5069883;28;20436;-71
2023/03/21 11:56:34;;;;;;;5.40;2.97;;;23.70;36.40;;;;;;5072946;28;20479;-70
2023/03/21 11:59:25;;;;;;;5.50;3.17;;;24.10;35.50;;;;;;5071818;28;20444;-70
2023/03/21 12:02:05;;;;;;;4.53;3.30;;;24.50;35.30;;;;;;5068080;28;20541;-70
2023/03/21 12:04:40;;;;;;;3.87;3.00;;;24.90;32.00;;;;;;5064430;28;20454;-70
2023/03/21 12:07:27;;;;;;;5.17;3.20;;;25.00;31.50;;;;;;5077597;28;20469;-70
2023/03/21 12:10:03;;;;;;;3.67;3.03;;;24.80;31.20;;;;;;5072356;28;20527;-70
2023/03/21 12:12:39;;;;;;;3.90;3.00;;;24.50;30.30;;;;;;5071285;28;20518;-70
2023/03/21 12:15:16;;;;;;;7.50;3.43;;;24.30;30.90;;;;;;5071381;28;20570;-70
2023/03/21 12:17:50;;;;;;;4.43;3.30;;;24.10;30.80;;;;;;5071292;28;20519;-70
2023/03/21 12:20:30;;;;;;;5.87;4.30;;;23.80;31.10;;;;;;5072154;28;20488;-70
2023/03/21 12:23:15;;;;;;;4.10;3.43;;;23.60;30.90;;;;;;5072703;28;20475;-70
2023/03/21 12:25:46;;;;;;;3.50;2.90;;;23.60;32.40;;;;;;5072620;28;20520;-71
2023/03/21 12:28:27;;;;;;;4.40;3.73;;;23.50;32.10;;;;;;5072316;28;20428;-70
2023/03/21 12:31:00;;;;;;;4.67;3.40;;;23.50;32.30;;;;;;5072738;28;20443;-70
2023/03/21 12:33:45;;;;;;;5.60;4.30;;;23.30;32.50;;;;;;5072566;28;20832;-70
2023/03/21 12:36:29;;;;;;;4.63;3.70;;;23.10;32.80;;;;;;5073033;28;20515;-70
2023/03/21 12:39:05;;;;;;;4.00;3.60;;;23.20;33.30;;;;;;5075994;28;20522;-70
2023/03/21 12:41:34;;;;;;;6.70;3.80;;;23.40;33.50;;;;;;5076457;28;20443;-70
2023/03/21 12:44:05;;;;;;;4.30;3.10;;;23.50;33.00;;;;;;5075916;28;20773;-70
2023/03/21 12:46:39;;;;;;;5.00;3.60;;;23.40;33.30;;;;;;5076301;28;20493;-70
2023/03/21 12:49:10;;;;;;;5.57;2.60;;;23.20;33.20;;;;;;5076058;28;20526;-70
2023/03/21 12:51:43;;;;;;;3.57;2.80;;;23.10;33.80;;;;;;5075979;28;20547;-70
2023/03/21 12:54:21;;;;;;;3.40;2.80;;;22.90;33.30;;;;;;5075990;28;20475;-70
2023/03/21 12:56:54;;;;;;;5.30;3.13;;;22.80;32.30;;;;;;5075841;28;20475;-71
2023/03/21 12:59:32;;;;;;;3.97;3.37;;;22.70;33.00;;;;;;5076014;28;20432;-70
2023/03/21 13:02:04;;;;;;;8.90;3.50;;;22.70;33.60;;;;;;5075625;28;20463;-70
2023/03/21 13:04:45;;;;;;;4.10;3.43;;;22.60;33.00;;;;;;5075652;28;20515;-70
2023/03/21 13:07:19;;;;;;;5.10;3.60;;;22.60;33.90;;;;;;5075532;28;20506;-70
2023/03/21 13:09:47;;;;;;;4.13;3.50;;;22.50;34.00;;;;;;5075894;28;20439;-70
2023/03/21 13:12:36;;;;;;;5.10;3.33;;;22.40;33.80;;;;;;5075218;28;20478;-70
2023/03/21 13:15:17;;;;;;;5.67;3.30;;;22.20;33.20;;;;;;5075367;28;20503;-70